»·PEaware :: N524BL KAPV-KBFL

N524BL :: KAPV-KBFL

FLIGHT INFORMATION

Flight Status: Arrived
Operator: Privately registered:
United States
More flights under this callsign
Pilot: Brogan Lopez (12398)
Aircraft: PILATUS PC-12 EAGLE
(PC12)
More flights by this aircraft type
Origin: KAPV Apple Valley
United States
Destination: KBFL Meadows
United States
More flights between these airports :: More routes between these airports
Route: PMD FASTO2
File this flight plan on PilotEdge
Remarks:
Altitude:
(Current/Filed)
12,000ft
Speed:
(Current/Filed)
250kts
Departed: 20-Mar-17 04:33 PM
Arrived: 20-Mar-17 05:11 PM
Distance/Time
Traveled:
105nm/0:38
Distance/Time
To Go:
Arrived

Flight Plot

Page will automatically refresh every two minutes.

Flight plan parsing failed; only flown route is shown


Map Options




Map Legend


Flown Route
Filed Route
Departure Airport
Arrival Airport
Navaid (VOR, NDB)
Fix

Horizontal Profiles

Position Reports

Time Latitude Longitude Heading Altitude Ground
Speed
20-Mar-17 16:17 34.580607 -117.187158 3 3066ft 0kts
20-Mar-17 16:18 34.580607 -117.187158 3 3066ft 0kts
20-Mar-17 16:19 34.580607 -117.187158 3 3066ft 0kts
20-Mar-17 16:20 34.580607 -117.187158 3 3066ft 0kts
20-Mar-17 16:21 34.580607 -117.187158 3 3066ft 0kts
20-Mar-17 16:22 34.580607 -117.187158 3 3066ft 0kts
20-Mar-17 16:23 34.580607 -117.187158 3 3066ft 0kts
20-Mar-17 16:24 34.580607 -117.187158 3 3066ft 0kts
20-Mar-17 16:25 34.580607 -117.187158 3 3066ft 0kts
20-Mar-17 16:26 34.580607 -117.187158 3 3066ft 0kts
20-Mar-17 16:27 34.580607 -117.187158 3 3066ft 0kts
20-Mar-17 16:28 34.580607 -117.187158 3 3066ft 0kts
20-Mar-17 16:29 34.580607 -117.187158 3 3066ft 0kts
20-Mar-17 16:30 34.580717 -117.186898 92 3066ft 6kts
20-Mar-17 16:31 34.583180 -117.185469 14 3066ft 16kts
20-Mar-17 16:32 34.586896 -117.183780 136 3066ft 0kts
20-Mar-17 16:33 34.586896 -117.183780 136 3066ft 0kts
20-Mar-17 16:34 34.580953 -117.184845 193 3070ft 90kts
20-Mar-17 16:35 34.558178 -117.191581 154 4375ft 123kts
20-Mar-17 16:36 34.576733 -117.166045 8 6142ft 172kts
20-Mar-17 16:37 34.618673 -117.171573 346 7981ft 178kts
20-Mar-17 16:38 34.665333 -117.182266 319 9860ft 178kts
20-Mar-17 16:39 34.666639 -117.226812 252 11613ft 154kts
20-Mar-17 16:40 34.661433 -117.282997 260 12041ft 205kts
20-Mar-17 16:41 34.658878 -117.345806 261 12037ft 196kts
20-Mar-17 16:42 34.656377 -117.412138 262 12039ft 219kts
20-Mar-17 16:43 34.653882 -117.481710 262 12038ft 226kts
20-Mar-17 16:44 34.651295 -117.552319 262 12038ft 228kts
20-Mar-17 16:45 34.648701 -117.621942 262 12035ft 224kts
20-Mar-17 16:46 34.646332 -117.684093 262 12028ft 223kts
20-Mar-17 16:47 34.643793 -117.749894 262 12020ft 223kts
20-Mar-17 16:48 34.641103 -117.818683 262 12012ft 222kts
20-Mar-17 16:49 34.638232 -117.891055 262 12014ft 222kts
20-Mar-17 16:50 34.635403 -117.961305 262 12022ft 222kts
20-Mar-17 16:51 34.632413 -118.034466 262 12030ft 222kts
20-Mar-17 16:52 34.659227 -118.100006 306 12037ft 240kts
20-Mar-17 16:53 34.701698 -118.155130 307 12041ft 240kts
20-Mar-17 16:54 34.745671 -118.212345 306 12043ft 241kts
20-Mar-17 16:55 34.789483 -118.269502 306 12045ft 241kts
20-Mar-17 16:56 34.832783 -118.326089 306 12048ft 240kts
20-Mar-17 16:57 34.878271 -118.385635 306 12059ft 240kts
20-Mar-17 16:58 34.923416 -118.444851 307 12076ft 239kts
20-Mar-17 16:59 34.967861 -118.503243 307 12088ft 238kts
20-Mar-17 17:00 35.010025 -118.558728 307 12094ft 236kts
20-Mar-17 17:01 35.054988 -118.611417 312 12094ft 237kts
20-Mar-17 17:02 35.099952 -118.661849 312 12087ft 237kts
20-Mar-17 17:03 35.146286 -118.714008 312 12074ft 237kts
20-Mar-17 17:04 35.192222 -118.765892 311 12062ft 233kts
20-Mar-17 17:05 35.234554 -118.817791 312 10001ft 227kts
20-Mar-17 17:06 35.277517 -118.869733 311 7217ft 222kts
20-Mar-17 17:07 35.317454 -118.918022 312 5027ft 203kts
20-Mar-17 17:08 35.355538 -118.962781 317 2821ft 193kts
20-Mar-17 17:09 35.387455 -119.000873 318 1727ft 136kts
20-Mar-17 17:10 35.407951 -119.024870 317 1230ft 96kts
20-Mar-17 17:11 35.426060 -119.046777 317 703ft 85kts
20-Mar-17 17:12 35.438209 -119.060111 77 510ft 16kts
20-Mar-17 17:13 35.438243 -119.059737 73 510ft 0kts
20-Mar-17 17:14 35.436650 -119.057275 134 510ft 17kts
20-Mar-17 17:15 35.432665 -119.052488 134 510ft 22kts
20-Mar-17 17:16 35.428547 -119.047084 38 510ft 14kts
20-Mar-17 17:17 35.428754 -119.046457 214 510ft 0kts
20-Mar-17 17:18 35.428754 -119.046457 214 510ft 0kts

Navigation Log

Ident Type
Flight plan parsing failed, navigation log unavailable